createdAt,value
2023-01-21T00:03:44.704Z,91.13
2023-01-21T00:07:27.742Z,91.21
2023-01-21T00:11:14.383Z,92.22
2023-01-21T00:14:57.225Z,91.08
2023-01-21T00:18:41.495Z,90.52
2023-01-21T00:22:24.224Z,90.20
2023-01-21T00:26:08.725Z,90.77
2023-01-21T00:29:54.174Z,91.03
2023-01-21T00:33:37.878Z,91.43
2023-01-21T00:37:21.882Z,91.11
2023-01-21T00:41:06.133Z,91.76
2023-01-21T00:44:49.991Z,91.97
2023-01-21T00:48:32.964Z,92.74
2023-01-21T00:52:15.761Z,91.11
2023-01-21T00:56:01.706Z,89.58
2023-01-21T00:59:44.607Z,87.88
2023-01-21T01:03:27.388Z,88.35
2023-01-21T01:07:10.173Z,86.87
2023-01-21T01:10:55.040Z,88.33
2023-01-21T01:14:39.119Z,88.38
2023-01-21T01:18:22.045Z,86.73
2023-01-21T01:22:04.790Z,86.18
2023-01-21T01:25:55.675Z,86.55
2023-01-21T01:29:39.714Z,86.58
2023-01-21T01:33:22.939Z,86.96
2023-01-21T01:37:05.782Z,87.63
2023-01-21T01:40:49.163Z,87.50
2023-01-21T01:45:01.209Z,86.62
2023-01-21T01:48:47.210Z,85.73
2023-01-21T01:52:30.249Z,85.98
2023-01-21T01:56:13.388Z,86.49
2023-01-21T01:59:58.268Z,85.21
2023-01-21T02:03:50.809Z,84.48
2023-01-21T02:07:39.242Z,84.03
2023-01-21T02:11:21.928Z,85.17
2023-01-21T02:15:06.862Z,84.26
2023-01-21T02:18:53.987Z,85.38
2023-01-21T02:22:39.168Z,85.07
2023-01-21T02:26:56.581Z,86.38
2023-01-21T02:31:04.024Z,86.30
2023-01-21T02:34:49.959Z,86.52
2023-01-21T02:38:37.633Z,86.57
2023-01-21T02:42:24.769Z,86.88
2023-01-21T02:46:10.788Z,84.63
2023-01-21T02:49:58.460Z,85.43
2023-01-21T02:53:41.203Z,84.95
2023-01-21T02:57:37.212Z,86.02
2023-01-21T03:01:28.262Z,86.99
2023-01-21T03:05:18.000Z,85.08
2023-01-21T03:09:04.847Z,84.08
2023-01-21T03:12:52.295Z,83.70
2023-01-21T03:16:54.482Z,83.91
2023-01-21T03:20:41.743Z,83.86
2023-01-21T03:24:24.477Z,84.16
2023-01-21T03:28:09.811Z,85.31
2023-01-21T03:31:56.916Z,85.24
2023-01-21T03:35:43.340Z,85.19
2023-01-21T03:39:31.488Z,85.57
2023-01-21T03:43:14.186Z,86.53
2023-01-21T03:47:01.419Z,85.16
2023-01-21T03:50:50.301Z,84.90
2023-01-21T03:54:33.100Z,85.38
2023-01-21T03:58:15.791Z,85.32
2023-01-21T04:02:00.857Z,85.45
2023-01-21T04:05:44.899Z,85.70
2023-01-21T04:09:27.772Z,85.31
2023-01-21T04:13:10.392Z,84.69
2023-01-21T04:16:53.100Z,83.96
2023-01-21T04:20:35.770Z,84.76
2023-01-21T04:24:19.883Z,85.96
2023-01-21T04:28:02.527Z,85.61
2023-01-21T04:31:45.315Z,83.84
2023-01-21T04:35:28.104Z,84.45
2023-01-21T04:39:11.798Z,85.51
2023-01-21T04:42:55.916Z,85.60
2023-01-21T04:46:38.738Z,86.47
2023-01-21T04:50:21.507Z,86.13
2023-01-21T04:54:04.205Z,83.62
2023-01-21T04:57:46.862Z,84.54
2023-01-21T05:01:31.003Z,83.49
2023-01-21T05:05:13.732Z,84.40
2023-01-21T05:08:56.421Z,83.78
2023-01-21T05:12:39.086Z,84.99
2023-01-21T05:16:22.161Z,84.60
2023-01-21T05:20:07.171Z,85.71
2023-01-21T05:23:49.809Z,85.30
2023-01-21T05:27:32.507Z,85.70
2023-01-21T05:31:15.339Z,85.79
2023-01-21T05:34:58.065Z,86.18
2023-01-21T05:38:42.185Z,85.92
2023-01-21T05:42:24.862Z,86.39
2023-01-21T05:46:07.560Z,86.56
2023-01-21T05:49:50.211Z,86.88
2023-01-21T05:53:32.886Z,86.35
2023-01-21T05:57:16.944Z,86.36
2023-01-21T06:01:00.097Z,86.78
2023-01-21T06:04:42.830Z,85.97
2023-01-21T06:08:25.491Z,86.19
2023-01-21T06:12:08.172Z,86.56
2023-01-21T06:15:55.386Z,87.34
2023-01-21T06:19:38.065Z,88.06
2023-01-21T06:23:20.745Z,88.91
2023-01-21T06:27:03.377Z,88.51
2023-01-21T06:30:47.442Z,88.96
2023-01-21T06:34:31.584Z,89.81
2023-01-21T06:38:14.304Z,88.69
2023-01-21T06:41:57.027Z,88.35
2023-01-21T06:45:39.743Z,88.58
2023-01-21T06:49:22.405Z,88.75
2023-01-21T06:53:06.466Z,88.02
2023-01-21T06:56:49.179Z,87.53
2023-01-21T07:00:31.838Z,87.54
2023-01-21T07:04:14.524Z,87.09
2023-01-21T07:07:57.595Z,86.37
2023-01-21T07:11:41.602Z,86.09
2023-01-21T07:15:24.706Z,86.09
2023-01-21T07:19:07.381Z,86.59
2023-01-21T07:22:50.030Z,86.50
2023-01-21T07:26:36.143Z,85.95
2023-01-21T07:30:21.620Z,86.48
2023-01-21T07:34:04.463Z,85.06
2023-01-21T07:37:47.123Z,85.67
2023-01-21T07:41:30.267Z,85.83
2023-01-21T07:45:12.894Z,85.01
2023-01-21T07:48:56.960Z,84.93
2023-01-21T07:52:39.624Z,85.37
2023-01-21T07:56:22.260Z,84.61
2023-01-21T08:00:05.621Z,84.99
2023-01-21T08:03:48.264Z,85.28
2023-01-21T08:07:32.252Z,85.14
2023-01-21T08:11:15.009Z,85.06
2023-01-21T08:14:57.649Z,83.98
2023-01-21T08:18:40.308Z,84.73
2023-01-21T08:22:23.238Z,84.19
2023-01-21T08:26:07.521Z,84.52
2023-01-21T08:29:50.155Z,84.31
2023-01-21T08:33:33.124Z,82.52
2023-01-21T08:37:15.783Z,83.97
2023-01-21T08:40:58.970Z,82.42
2023-01-21T08:44:43.503Z,83.94
2023-01-21T08:48:26.306Z,84.83
2023-01-21T08:52:08.951Z,84.04
2023-01-21T08:55:51.677Z,84.80
2023-01-21T08:59:34.410Z,84.87
2023-01-21T09:03:21.304Z,83.21
2023-01-21T09:07:04.214Z,84.27
2023-01-21T09:11:02.180Z,83.89
2023-01-21T09:14:44.995Z,83.51
2023-01-21T09:18:29.076Z,84.53
2023-01-21T09:22:11.774Z,83.32
2023-01-21T09:25:55.233Z,82.38
2023-01-21T09:29:37.976Z,82.65
2023-01-21T09:33:20.620Z,83.10
2023-01-21T09:37:05.109Z,82.75
2023-01-21T09:40:47.941Z,82.88
2023-01-21T09:44:32.564Z,82.49
2023-01-21T09:48:17.638Z,81.96
2023-01-21T09:52:07.089Z,80.71
2023-01-21T09:55:50.709Z,81.51
2023-01-21T09:59:44.122Z,82.08
2023-01-21T10:03:30.957Z,81.16
2023-01-21T10:07:17.090Z,81.01
2023-01-21T10:11:06.591Z,81.76
2023-01-21T10:15:21.715Z,81.70
2023-01-21T10:19:05.723Z,80.85
2023-01-21T10:22:53.201Z,82.47
2023-01-21T10:26:36.932Z,81.70
2023-01-21T10:30:25.948Z,81.87
2023-01-21T10:34:14.025Z,82.03
2023-01-21T10:38:04.348Z,83.28
2023-01-21T10:41:57.070Z,83.07
2023-01-21T10:45:44.164Z,83.36
2023-01-21T10:49:32.527Z,80.62
2023-01-21T10:53:22.204Z,79.76
2023-01-21T10:57:12.571Z,80.94
2023-01-21T11:00:56.319Z,81.52
2023-01-21T11:04:42.120Z,79.47
2023-01-21T11:08:27.631Z,80.41
2023-01-21T11:12:11.196Z,81.08
2023-01-21T11:15:56.286Z,82.08
2023-01-21T11:19:42.658Z,80.76
2023-01-21T11:23:29.245Z,78.55
2023-01-21T11:27:20.315Z,79.45
2023-01-21T11:31:09.448Z,79.84
2023-01-21T11:34:55.379Z,78.80
2023-01-21T11:38:39.515Z,78.64
2023-01-21T11:42:22.441Z,79.62
2023-01-21T11:46:37.489Z,78.73
2023-01-21T11:50:25.308Z,78.45
2023-01-21T11:54:16.102Z,78.88
2023-01-21T11:57:58.890Z,79.06
2023-01-21T12:01:41.611Z,79.36
2023-01-21T12:05:29.839Z,78.58
2023-01-21T12:09:18.456Z,78.53
2023-01-21T12:13:13.862Z,77.97
2023-01-21T12:17:05.479Z,78.53
2023-01-21T12:20:53.106Z,76.92
2023-01-21T12:24:47.373Z,77.65
2023-01-21T12:28:43.788Z,77.81
2023-01-21T12:32:29.310Z,76.48
2023-01-21T12:36:16.997Z,78.09
2023-01-21T12:40:04.402Z,76.96
2023-01-21T12:43:49.462Z,77.84
2023-01-21T12:47:37.132Z,76.88
2023-01-21T12:51:23.628Z,76.36
2023-01-21T12:55:15.226Z,77.60
2023-01-21T12:59:01.557Z,77.89
2023-01-21T13:02:50.682Z,78.52
2023-01-21T13:06:52.798Z,77.75
2023-01-21T13:10:40.797Z,78.68
2023-01-21T13:14:27.925Z,78.58
2023-01-21T13:18:13.163Z,77.44
2023-01-21T13:22:00.366Z,77.88
2023-01-21T13:25:48.407Z,77.60
2023-01-21T13:29:37.919Z,78.03
2023-01-21T13:33:26.745Z,77.88
2023-01-21T13:37:11.895Z,77.79
2023-01-21T13:41:00.139Z,78.13
2023-01-21T13:44:56.022Z,78.24
2023-01-21T13:49:05.356Z,79.30
2023-01-21T13:53:05.413Z,79.52
2023-01-21T13:57:08.932Z,79.58
2023-01-21T14:00:57.868Z,80.52
2023-01-21T14:04:43.434Z,80.06
2023-01-21T14:08:29.669Z,80.06
2023-01-21T14:12:18.199Z,80.08
2023-01-21T14:16:12.193Z,81.27
2023-01-21T14:20:39.699Z,81.50
2023-01-21T14:24:36.622Z,82.59
2023-01-21T14:28:26.336Z,83.01
2023-01-21T14:32:14.015Z,83.56
2023-01-21T14:36:04.899Z,83.52
2023-01-21T14:39:54.426Z,83.07
2023-01-21T14:43:56.177Z,83.35
2023-01-21T14:47:44.415Z,84.62
2023-01-21T14:51:28.822Z,85.13
2023-01-21T14:55:27.676Z,85.35
2023-01-21T14:59:28.507Z,85.67
2023-01-21T15:03:16.219Z,84.52
2023-01-21T15:07:00.496Z,85.51
2023-01-21T15:10:43.286Z,85.68
2023-01-21T15:14:29.114Z,86.30
2023-01-21T15:18:27.038Z,86.86
2023-01-21T15:22:23.682Z,86.19
2023-01-21T15:26:20.887Z,86.63
2023-01-21T15:30:28.128Z,86.52
2023-01-21T15:34:14.902Z,86.88
2023-01-21T15:38:03.013Z,87.40
2023-01-21T15:41:56.947Z,88.16
2023-01-21T15:45:49.510Z,88.72
2023-01-21T15:49:40.487Z,86.97
2023-01-21T15:53:51.394Z,87.22
2023-01-21T15:57:42.187Z,86.73
2023-01-21T16:01:33.095Z,86.51
2023-01-21T16:05:26.469Z,87.14
2023-01-21T16:09:10.484Z,87.05
2023-01-21T16:13:00.186Z,88.40
2023-01-21T16:16:50.435Z,88.13
2023-01-21T16:20:36.238Z,88.50
2023-01-21T16:24:22.081Z,88.52
2023-01-21T16:28:05.007Z,87.48
2023-01-21T16:31:51.250Z,89.23
2023-01-21T16:35:43.656Z,88.80
2023-01-21T16:39:27.093Z,88.04
2023-01-21T16:43:18.924Z,86.42
2023-01-21T16:47:03.255Z,86.27
2023-01-21T16:50:48.562Z,86.36
2023-01-21T16:54:32.503Z,87.18
2023-01-21T16:58:27.033Z,86.77
2023-01-21T17:02:19.734Z,86.67
2023-01-21T17:06:08.175Z,86.45
2023-01-21T17:09:56.476Z,85.91
2023-01-21T17:13:43.590Z,84.82
2023-01-21T17:17:30.403Z,85.52
2023-01-21T17:21:14.505Z,84.87
2023-01-21T17:25:03.051Z,85.10
2023-01-21T17:28:47.221Z,84.43
2023-01-21T17:32:33.289Z,85.39
2023-01-21T17:36:18.608Z,85.56
2023-01-21T17:40:01.766Z,85.53
2023-01-21T17:43:50.291Z,86.49
2023-01-21T17:47:46.402Z,86.21
2023-01-21T17:51:38.615Z,86.56
2023-01-21T17:55:34.521Z,88.10
2023-01-21T17:59:37.517Z,89.22
2023-01-21T18:03:21.529Z,88.17
2023-01-21T18:07:07.955Z,87.03
2023-01-21T18:10:51.634Z,85.87
2023-01-21T18:14:34.336Z,86.20
2023-01-21T18:18:18.331Z,86.60
2023-01-21T18:22:03.577Z,87.06
2023-01-21T18:25:48.661Z,87.25
2023-01-21T18:29:31.759Z,87.18
2023-01-21T18:33:14.664Z,87.34
2023-01-21T18:36:57.772Z,87.90
2023-01-21T18:40:41.791Z,87.85
2023-01-21T18:44:24.477Z,88.75
2023-01-21T18:48:10.491Z,89.13
2023-01-21T18:51:53.256Z,90.06
2023-01-21T18:55:36.076Z,89.63
2023-01-21T18:59:22.334Z,90.16
2023-01-21T19:03:05.047Z,89.83
2023-01-21T19:06:47.736Z,88.13
2023-01-21T19:10:30.449Z,88.03
2023-01-21T19:14:13.100Z,88.46
2023-01-21T19:17:57.526Z,86.85
2023-01-21T19:21:43.130Z,88.61
2023-01-21T19:25:26.670Z,89.81
2023-01-21T19:29:14.857Z,89.09
2023-01-21T19:33:00.654Z,87.70
2023-01-21T19:36:43.384Z,86.79
2023-01-21T19:40:28.321Z,86.59
2023-01-21T19:44:10.993Z,88.07
2023-01-21T19:47:53.746Z,88.33
2023-01-21T19:51:37.931Z,87.85
2023-01-21T19:55:22.211Z,85.64
2023-01-21T19:59:05.596Z,85.75
2023-01-21T20:02:48.409Z,86.71
2023-01-21T20:06:34.791Z,86.68
2023-01-21T20:10:20.867Z,85.87
2023-01-21T20:14:03.809Z,86.29
2023-01-21T20:17:50.551Z,86.79
2023-01-21T20:21:33.550Z,86.94
2023-01-21T20:25:19.594Z,87.54
2023-01-21T20:29:03.706Z,87.78
2023-01-21T20:32:46.956Z,87.99
2023-01-21T20:36:29.705Z,85.34
2023-01-21T20:40:22.768Z,85.24
2023-01-21T20:44:05.661Z,86.18
2023-01-21T20:47:50.597Z,86.49
2023-01-21T20:51:33.439Z,86.40
2023-01-21T20:55:20.678Z,85.61
2023-01-21T20:59:05.362Z,86.88
2023-01-21T21:02:49.003Z,84.30
2023-01-21T21:06:33.458Z,84.33
2023-01-21T21:10:22.038Z,84.91
2023-01-21T21:14:06.126Z,85.07
2023-01-21T21:17:49.222Z,84.86
2023-01-21T21:21:31.889Z,84.87
2023-01-21T21:25:16.304Z,84.84
2023-01-21T21:28:59.286Z,86.08
2023-01-21T21:32:43.415Z,85.98
2023-01-21T21:36:26.211Z,84.97
2023-01-21T21:40:10.522Z,84.97
2023-01-21T21:43:53.161Z,84.50
2023-01-21T21:47:52.608Z,84.44
2023-01-21T21:51:38.014Z,84.79
2023-01-21T21:55:20.899Z,85.11
2023-01-21T21:59:03.941Z,85.55
2023-01-21T22:02:46.665Z,84.82
2023-01-21T22:06:29.949Z,85.34
2023-01-21T22:10:14.311Z,85.47
2023-01-21T22:13:58.105Z,85.59
2023-01-21T22:17:40.796Z,85.10
2023-01-21T22:21:25.587Z,85.17
2023-01-21T22:25:10.795Z,82.52
2023-01-21T22:28:54.961Z,83.77
2023-01-21T22:32:37.729Z,83.33
2023-01-21T22:36:21.935Z,84.18
2023-01-21T22:40:05.428Z,86.07
2023-01-21T22:43:49.088Z,86.33
2023-01-21T22:47:34.864Z,86.60
2023-01-21T22:51:19.670Z,84.48
2023-01-21T22:55:02.555Z,86.06
2023-01-21T22:58:45.694Z,84.67
2023-01-21T23:02:28.425Z,84.18
2023-01-21T23:06:12.626Z,85.53
2023-01-21T23:09:55.448Z,86.45
2023-01-21T23:13:38.185Z,85.66
2023-01-21T23:17:21.013Z,84.67
2023-01-21T23:21:07.170Z,84.21
2023-01-21T23:24:51.228Z,84.41
2023-01-21T23:28:34.732Z,83.55
2023-01-21T23:32:17.541Z,84.24
2023-01-21T23:36:00.942Z,85.16
2023-01-21T23:39:43.742Z,84.31
2023-01-21T23:43:28.292Z,82.69
2023-01-21T23:47:11.117Z,83.44
2023-01-21T23:50:53.820Z,82.67
2023-01-21T23:54:36.537Z,84.23
2023-01-21T23:58:19.205Z,85.12
